La Puebla de Almoradiel, Spain
Current Conditions -  °F | °C
As of 1:00 PM on Tuesday 21 Oct 2014 (Local Time) from LEGT Reporting Station
Clear Clear  
Wind Chill: 75°   Ceiling: Unl
Heat Index: 75°   Visibility: 6mi
Dew Point: 50°   Wind: 0mph
Humidity: 41%   Direction: NA
Pressure: 30.36"   Gusts: NA
Location:  39.6°N, 3.12°W
Report Text: LEGT 211100Z 00000KT CAVOK 24/10 Q1028
Loading
Personal Weather Stations






























Interactive Weather Map
Tropical Storm Tracking
New forecast layout! Learn more

10-Day Weather Forecast

Advertisements
Track Severe Weather on mobile